createdAt,value
2018-07-25T00:00:57.162Z,20.93
2018-07-25T00:03:26.210Z,25.83
2018-07-25T00:05:55.529Z,21.03
2018-07-25T00:08:24.622Z,25.27
2018-07-25T00:10:54.358Z,21.87
2018-07-25T00:13:25.970Z,20.57
2018-07-25T00:15:55.461Z,21.20
2018-07-25T00:18:24.562Z,20.30
2018-07-25T00:20:54.213Z,26.53
2018-07-25T00:23:23.541Z,24.27
2018-07-25T00:25:53.259Z,23.20
2018-07-25T00:28:22.470Z,21.03
2018-07-25T00:30:52.430Z,21.27
2018-07-25T00:33:21.341Z,22.90
2018-07-25T00:35:50.489Z,23.23
2018-07-25T00:38:20.063Z,27.30
2018-07-25T00:40:49.699Z,22.57
2018-07-25T00:43:19.367Z,22.00
2018-07-25T00:45:48.547Z,24.07
2018-07-25T00:48:17.637Z,24.83
2018-07-25T00:50:46.775Z,25.73
2018-07-25T00:53:16.197Z,24.70
2018-07-25T00:55:45.720Z,23.93
2018-07-25T00:58:16.509Z,23.73
2018-07-25T01:00:46.809Z,24.20
2018-07-25T01:03:15.926Z,22.87
2018-07-25T01:05:45.846Z,22.40
2018-07-25T01:08:15.499Z,25.10
2018-07-25T01:10:44.632Z,30.27
2018-07-25T01:13:13.796Z,25.60
2018-07-25T01:15:43.134Z,29.10
2018-07-25T01:18:12.238Z,26.37
2018-07-25T01:20:41.359Z,29.13
2018-07-25T01:23:10.505Z,27.30
2018-07-25T01:25:39.638Z,29.63
2018-07-25T01:28:08.762Z,32.03
2018-07-25T01:30:37.862Z,24.70
2018-07-25T01:33:07.354Z,25.70
2018-07-25T01:35:36.556Z,27.03
2018-07-25T01:38:06.476Z,28.80
2018-07-25T01:40:35.724Z,29.37
2018-07-25T01:43:04.914Z,29.23
2018-07-25T01:45:34.290Z,27.10
2018-07-25T01:48:03.102Z,30.23
2018-07-25T01:50:32.277Z,28.00
2018-07-25T01:53:01.483Z,33.70
2018-07-25T01:55:30.608Z,30.17
2018-07-25T01:57:59.694Z,26.50
2018-07-25T02:00:28.944Z,27.10
2018-07-25T02:02:58.097Z,26.90
2018-07-25T02:05:27.210Z,26.43
2018-07-25T02:07:57.538Z,25.83
2018-07-25T02:10:26.673Z,23.90
2018-07-25T02:12:55.817Z,25.03
2018-07-25T02:15:24.947Z,25.50
2018-07-25T02:17:54.066Z,25.30
2018-07-25T02:20:23.187Z,29.73
2018-07-25T02:22:56.306Z,25.73
2018-07-25T02:25:25.742Z,29.20
2018-07-25T02:27:55.413Z,32.93
2018-07-25T02:30:25.276Z,33.80
2018-07-25T02:32:54.414Z,27.73
2018-07-25T02:35:23.971Z,28.47
2018-07-25T02:37:53.305Z,28.13
2018-07-25T02:40:25.691Z,29.77
2018-07-25T02:42:55.190Z,30.40
2018-07-25T02:45:24.315Z,30.47
2018-07-25T02:47:53.782Z,33.13
2018-07-25T02:50:22.910Z,30.13
2018-07-25T02:52:52.102Z,28.90
2018-07-25T02:55:24.043Z,28.77
2018-07-25T02:57:53.261Z,32.83
2018-07-25T03:00:22.406Z,31.60
2018-07-25T03:02:51.827Z,28.60
2018-07-25T03:05:21.005Z,31.07
2018-07-25T03:07:51.505Z,36.37
2018-07-25T03:10:20.918Z,29.60
2018-07-25T03:12:51.381Z,31.97
2018-07-25T03:15:20.937Z,31.37
2018-07-25T03:17:51.437Z,29.93
2018-07-25T03:20:20.522Z,30.67
2018-07-25T03:22:49.924Z,32.10
2018-07-25T03:25:19.091Z,29.17
2018-07-25T03:27:49.307Z,29.73
2018-07-25T03:30:18.426Z,35.03
2018-07-25T03:32:47.538Z,30.80
2018-07-25T03:35:18.667Z,31.90
2018-07-25T03:37:47.848Z,34.83
2018-07-25T03:40:17.021Z,34.03
2018-07-25T03:42:46.206Z,35.27
2018-07-25T03:45:16.077Z,33.17
2018-07-25T03:47:45.218Z,33.97
2018-07-25T03:50:14.911Z,34.80
2018-07-25T03:52:44.274Z,36.87
2018-07-25T03:55:13.521Z,32.80
2018-07-25T03:57:42.835Z,32.30
2018-07-25T04:00:12.581Z,35.23
2018-07-25T04:02:41.894Z,33.60
2018-07-25T04:05:12.242Z,36.90
2018-07-25T04:07:41.415Z,29.40
2018-07-25T04:10:10.991Z,31.47
2018-07-25T04:12:41.238Z,33.27
2018-07-25T04:15:11.186Z,31.93
2018-07-25T04:17:44.351Z,29.03
2018-07-25T04:20:15.556Z,30.80
2018-07-25T04:22:48.289Z,28.50
2018-07-25T04:25:17.837Z,27.43
2018-07-25T04:27:47.546Z,29.93
2018-07-25T04:30:18.106Z,27.00
2018-07-25T04:32:47.271Z,26.00
2018-07-25T04:35:17.058Z,25.27
2018-07-25T04:37:47.113Z,28.27
2018-07-25T04:40:16.773Z,25.27
2018-07-25T04:42:45.994Z,23.50
2018-07-25T04:45:15.392Z,23.10
2018-07-25T04:47:45.766Z,26.07
2018-07-25T04:50:14.955Z,20.83
2018-07-25T04:52:45.507Z,25.20
2018-07-25T04:55:14.321Z,19.33
2018-07-25T04:57:43.462Z,19.00
2018-07-25T05:00:13.349Z,20.90
2018-07-25T05:02:42.520Z,21.90
2018-07-25T05:05:11.705Z,21.90
2018-07-25T05:07:41.560Z,22.67
2018-07-25T05:10:12.560Z,22.80
2018-07-25T05:12:42.866Z,20.27
2018-07-25T05:15:12.323Z,20.77
2018-07-25T05:17:43.502Z,20.10
2018-07-25T05:20:12.654Z,19.10
2018-07-25T05:22:41.838Z,18.60
2018-07-25T05:25:11.024Z,23.50
2018-07-25T05:27:40.210Z,19.30
2018-07-25T05:30:09.873Z,20.73
2018-07-25T05:32:39.775Z,20.53
2018-07-25T05:35:08.910Z,19.70
2018-07-25T05:37:38.018Z,22.03
2018-07-25T05:40:07.933Z,22.60
2018-07-25T05:42:37.362Z,19.13
2018-07-25T05:45:07.211Z,20.30
2018-07-25T05:47:36.330Z,19.67
2018-07-25T05:50:06.407Z,20.30
2018-07-25T05:52:35.726Z,20.33
2018-07-25T05:55:05.154Z,20.80
2018-07-25T05:57:34.565Z,21.57
2018-07-25T06:00:04.219Z,20.03
2018-07-25T06:02:33.322Z,21.63
2018-07-25T06:05:02.723Z,21.33
2018-07-25T06:07:32.241Z,21.43
2018-07-25T06:10:01.450Z,22.50
2018-07-25T06:12:31.197Z,19.40
2018-07-25T06:15:00.364Z,20.77
2018-07-25T06:17:29.558Z,20.30
2018-07-25T06:19:58.669Z,20.13
2018-07-25T06:22:28.324Z,21.77
2018-07-25T06:24:57.555Z,22.67
2018-07-25T06:27:26.698Z,20.20
2018-07-25T06:29:55.841Z,20.33
2018-07-25T06:32:24.981Z,20.90
2018-07-25T06:34:54.348Z,20.30
2018-07-25T06:37:23.882Z,22.37
2018-07-25T06:39:53.011Z,21.87
2018-07-25T06:42:22.141Z,19.63
2018-07-25T06:44:51.718Z,20.43
2018-07-25T06:47:21.104Z,19.87
2018-07-25T06:49:50.209Z,19.90
2018-07-25T06:52:19.322Z,20.67
2018-07-25T06:54:48.453Z,20.13
2018-07-25T06:57:17.603Z,19.63
2018-07-25T06:59:46.545Z,19.63
2018-07-25T07:02:15.685Z,18.63
2018-07-25T07:04:44.876Z,18.53
2018-07-25T07:07:14.077Z,21.33
2018-07-25T07:09:43.270Z,19.90
2018-07-25T07:12:12.417Z,17.40
2018-07-25T07:14:41.878Z,18.40
2018-07-25T07:17:10.697Z,19.67
2018-07-25T07:19:39.809Z,20.90
2018-07-25T07:22:08.970Z,18.57
2018-07-25T07:24:38.151Z,19.37
2018-07-25T07:27:07.455Z,20.00
2018-07-25T07:29:36.598Z,19.17
2018-07-25T07:32:05.736Z,19.43
2018-07-25T07:34:34.882Z,19.00
2018-07-25T07:37:04.018Z,17.90
2018-07-25T07:39:33.197Z,17.77
2018-07-25T07:42:02.347Z,19.10
2018-07-25T07:44:31.462Z,18.87
2018-07-25T07:47:00.674Z,17.97
2018-07-25T07:49:29.813Z,16.77
2018-07-25T07:51:58.934Z,17.50
2018-07-25T07:54:28.052Z,19.30
2018-07-25T07:56:57.196Z,19.30
2018-07-25T07:59:26.394Z,17.30
2018-07-25T08:01:55.474Z,17.63
2018-07-25T08:04:24.711Z,19.70
2018-07-25T08:06:53.897Z,18.73
2018-07-25T08:09:23.015Z,18.33
2018-07-25T08:11:52.221Z,18.03
2018-07-25T08:14:21.431Z,18.03
2018-07-25T08:16:50.553Z,17.57
2018-07-25T08:19:19.327Z,19.03
2018-07-25T08:21:48.473Z,16.67
2018-07-25T08:24:17.607Z,18.30
2018-07-25T08:26:46.745Z,17.90
2018-07-25T08:29:15.866Z,17.60
2018-07-25T08:31:45.210Z,18.20
2018-07-25T08:34:14.362Z,18.77
2018-07-25T08:36:43.509Z,18.23
2018-07-25T08:39:12.868Z,17.80
2018-07-25T08:41:42.036Z,18.33
2018-07-25T08:44:11.130Z,16.73
2018-07-25T08:46:40.275Z,17.80
2018-07-25T08:49:09.461Z,16.30
2018-07-25T08:51:38.614Z,16.50
2018-07-25T08:54:07.849Z,17.80
2018-07-25T08:56:37.178Z,17.73
2018-07-25T08:59:06.306Z,17.40
2018-07-25T09:01:35.471Z,15.30
2018-07-25T09:04:04.673Z,18.17
2018-07-25T09:06:33.817Z,16.23
2018-07-25T09:09:02.926Z,18.27
2018-07-25T09:11:34.994Z,16.27
2018-07-25T09:14:04.874Z,14.60
2018-07-25T09:16:33.994Z,18.30
2018-07-25T09:19:03.849Z,14.50
2018-07-25T09:21:33.349Z,14.57
2018-07-25T09:24:02.118Z,14.20
2018-07-25T09:26:31.252Z,13.33
2018-07-25T09:29:00.543Z,12.40
2018-07-25T09:31:29.713Z,13.37
2018-07-25T09:33:58.864Z,14.37
2018-07-25T09:36:27.996Z,13.30
2018-07-25T09:38:57.150Z,14.00
2018-07-25T09:41:26.273Z,15.80
2018-07-25T09:43:55.454Z,14.90
2018-07-25T09:46:24.656Z,14.00
2018-07-25T09:48:53.730Z,14.20
2018-07-25T09:51:22.893Z,13.97
2018-07-25T09:53:52.039Z,14.13
2018-07-25T09:56:21.172Z,13.60
2018-07-25T09:58:50.277Z,13.10
2018-07-25T10:01:19.425Z,14.23
2018-07-25T10:03:48.523Z,15.23
2018-07-25T10:06:17.798Z,13.17
2018-07-25T10:08:46.923Z,12.30
2018-07-25T10:11:16.067Z,15.60
2018-07-25T10:13:45.210Z,12.63
2018-07-25T10:16:14.674Z,14.10
2018-07-25T10:18:43.841Z,14.50
2018-07-25T10:21:12.908Z,13.07
2018-07-25T10:23:41.754Z,12.80
2018-07-25T10:26:12.762Z,13.70
2018-07-25T10:28:41.910Z,12.73
2018-07-25T10:31:11.083Z,10.30
2018-07-25T10:33:40.207Z,11.10
2018-07-25T10:36:09.407Z,12.47
2018-07-25T10:38:38.538Z,12.30
2018-07-25T10:41:07.677Z,10.43
2018-07-25T10:43:36.811Z,11.77
2018-07-25T10:46:05.945Z,11.30
2018-07-25T10:48:35.101Z,10.20
2018-07-25T10:51:04.217Z,11.13
2018-07-25T10:53:33.362Z,11.33
2018-07-25T10:56:02.608Z,10.30
2018-07-25T10:58:31.661Z,11.63
2018-07-25T11:01:00.881Z,10.33
2018-07-25T11:03:30.174Z,10.07
2018-07-25T11:05:59.300Z,11.57
2018-07-25T11:08:28.412Z,9.57
2018-07-25T11:10:58.115Z,9.23
2018-07-25T11:13:27.286Z,10.90
2018-07-25T11:15:56.438Z,11.30
2018-07-25T11:18:25.564Z,11.20
2018-07-25T11:20:54.778Z,10.60
2018-07-25T11:23:23.962Z,10.03
2018-07-25T11:25:54.575Z,9.77
2018-07-25T11:28:24.510Z,9.70
2018-07-25T11:30:54.576Z,9.47
2018-07-25T11:33:23.695Z,8.73
2018-07-25T11:35:52.852Z,8.50
2018-07-25T11:38:22.460Z,8.70
2018-07-25T11:40:51.621Z,9.80
2018-07-25T11:43:20.810Z,8.30
2018-07-25T11:45:49.937Z,11.03
2018-07-25T11:48:19.474Z,8.10
2018-07-25T11:50:48.562Z,9.33
2018-07-25T11:53:17.709Z,14.23
2018-07-25T11:55:47.635Z,9.13
2018-07-25T11:58:16.731Z,9.10
2018-07-25T12:00:45.870Z,11.20
2018-07-25T12:03:15.860Z,9.03
2018-07-25T12:05:45.269Z,8.90
2018-07-25T12:08:14.503Z,7.47
2018-07-25T12:10:43.874Z,10.47
2018-07-25T12:13:13.239Z,9.63
2018-07-25T12:15:42.348Z,9.17
2018-07-25T12:18:11.486Z,9.90
2018-07-25T12:20:40.618Z,8.57
2018-07-25T12:23:09.738Z,8.70
2018-07-25T12:25:38.545Z,9.53
2018-07-25T12:28:07.741Z,9.33
2018-07-25T12:30:37.218Z,12.50
2018-07-25T12:33:06.654Z,10.10
2018-07-25T12:35:35.169Z,9.40
2018-07-25T12:38:05.489Z,21.90
2018-07-25T12:40:34.610Z,8.70
2018-07-25T12:43:03.782Z,7.90
2018-07-25T12:45:32.917Z,9.70
2018-07-25T12:48:02.032Z,11.33
2018-07-25T12:50:30.948Z,10.33
2018-07-25T12:53:00.141Z,9.37
2018-07-25T12:55:29.249Z,10.33
2018-07-25T12:57:58.595Z,10.33
2018-07-25T13:00:28.194Z,10.03
2018-07-25T13:02:58.134Z,8.97
2018-07-25T13:05:27.277Z,10.33
2018-07-25T13:07:56.422Z,10.00
2018-07-25T13:10:25.599Z,9.90
2018-07-25T13:12:54.849Z,10.57
2018-07-25T13:15:24.378Z,10.80
2018-07-25T13:17:54.069Z,9.47
2018-07-25T13:20:23.538Z,9.47
2018-07-25T13:22:52.732Z,9.70
2018-07-25T13:25:21.937Z,10.50
2018-07-25T13:27:51.054Z,9.17
2018-07-25T13:30:20.192Z,9.60
2018-07-25T13:32:49.387Z,7.70
2018-07-25T13:35:18.708Z,9.70
2018-07-25T13:37:47.387Z,9.00
2018-07-25T13:40:16.506Z,8.10
2018-07-25T13:42:45.681Z,13.40
2018-07-25T13:45:14.790Z,10.40
2018-07-25T13:47:43.918Z,8.80
2018-07-25T13:50:13.082Z,9.50
2018-07-25T13:52:42.259Z,9.50
2018-07-25T13:55:11.426Z,9.20
2018-07-25T13:57:41.277Z,9.20
2018-07-25T14:00:11.883Z,8.23
2018-07-25T14:02:41.286Z,9.10
2018-07-25T14:05:13.095Z,9.37
2018-07-25T14:07:42.754Z,10.07
2018-07-25T14:10:11.941Z,8.60
2018-07-25T14:12:41.141Z,8.63
2018-07-25T14:15:10.294Z,10.03
2018-07-25T14:17:39.557Z,10.17
2018-07-25T14:20:09.218Z,9.33
2018-07-25T14:22:38.332Z,9.83
2018-07-25T14:25:07.254Z,9.67
2018-07-25T14:27:36.062Z,8.47
2018-07-25T14:30:05.696Z,8.70
2018-07-25T14:32:34.778Z,7.57
2018-07-25T14:35:05.441Z,7.60
2018-07-25T14:37:34.533Z,7.80
2018-07-25T14:40:03.345Z,7.83
2018-07-25T14:42:32.725Z,7.70
2018-07-25T14:45:03.331Z,8.33
2018-07-25T14:47:33.402Z,7.70
2018-07-25T14:50:01.981Z,8.97
2018-07-25T14:52:31.314Z,7.63
2018-07-25T14:55:00.583Z,8.57
2018-07-25T14:57:29.231Z,8.43
2018-07-25T14:59:58.802Z,9.20
2018-07-25T15:02:28.056Z,10.00
2018-07-25T15:04:57.514Z,7.50
2018-07-25T15:07:26.614Z,9.13
2018-07-25T15:09:55.790Z,8.50
2018-07-25T15:12:30.116Z,7.50
2018-07-25T15:14:59.538Z,8.67
2018-07-25T15:17:29.035Z,11.30
2018-07-25T15:19:58.484Z,8.47
2018-07-25T15:22:27.789Z,7.53
2018-07-25T15:24:56.971Z,7.83
2018-07-25T15:27:26.377Z,8.80
2018-07-25T15:29:55.787Z,9.63
2018-07-25T15:32:26.154Z,10.40
2018-07-25T15:34:55.458Z,9.10
2018-07-25T15:37:26.027Z,9.43
2018-07-25T15:39:55.742Z,8.90
2018-07-25T15:42:28.659Z,7.93
2018-07-25T15:44:57.410Z,8.27
2018-07-25T15:47:26.618Z,8.00
2018-07-25T15:49:55.710Z,9.47
2018-07-25T15:52:24.588Z,9.23
2018-07-25T15:54:53.742Z,8.87
2018-07-25T15:57:22.871Z,9.63
2018-07-25T15:59:52.059Z,9.60
2018-07-25T16:02:21.158Z,10.83
2018-07-25T16:04:50.275Z,9.70
2018-07-25T16:07:19.390Z,9.27
2018-07-25T16:09:48.585Z,9.50
2018-07-25T16:12:17.710Z,9.63
2018-07-25T16:14:46.814Z,9.43
2018-07-25T16:17:15.925Z,9.67
2018-07-25T16:19:45.282Z,9.77
2018-07-25T16:22:14.645Z,9.03
2018-07-25T16:24:44.227Z,9.60
2018-07-25T16:27:13.541Z,9.80
2018-07-25T16:29:42.837Z,12.90
2018-07-25T16:32:12.143Z,10.63
2018-07-25T16:34:40.874Z,9.00
2018-07-25T16:37:10.013Z,9.20
2018-07-25T16:39:39.148Z,15.80
2018-07-25T16:42:08.267Z,8.80
2018-07-25T16:44:37.435Z,10.00
2018-07-25T16:47:06.550Z,9.10
2018-07-25T16:49:35.814Z,9.70
2018-07-25T16:52:04.951Z,12.40
2018-07-25T16:54:34.075Z,10.77
2018-07-25T16:57:03.005Z,10.63
2018-07-25T16:59:32.146Z,8.97
2018-07-25T17:02:01.316Z,9.20
2018-07-25T17:04:30.425Z,7.70
2018-07-25T17:06:59.574Z,9.63
2018-07-25T17:09:28.454Z,9.37
2018-07-25T17:11:57.593Z,9.53
2018-07-25T17:14:26.756Z,10.70
2018-07-25T17:16:55.866Z,9.03
2018-07-25T17:19:25.012Z,9.67
2018-07-25T17:21:54.154Z,13.50
2018-07-25T17:24:23.329Z,14.60
2018-07-25T17:26:52.505Z,11.77
2018-07-25T17:29:21.635Z,12.53
2018-07-25T17:31:50.770Z,9.03
2018-07-25T17:34:20.102Z,10.17
2018-07-25T17:36:48.850Z,8.80
2018-07-25T17:39:17.970Z,8.47
2018-07-25T17:41:47.118Z,10.27
2018-07-25T17:44:16.235Z,8.43
2018-07-25T17:46:45.374Z,8.67
2018-07-25T17:49:14.499Z,13.20
2018-07-25T17:51:43.609Z,8.00
2018-07-25T17:54:12.732Z,7.47
2018-07-25T17:56:41.850Z,7.43
2018-07-25T17:59:10.954Z,7.07
2018-07-25T18:01:40.058Z,8.57
2018-07-25T18:04:09.166Z,9.17
2018-07-25T18:06:38.333Z,8.13
2018-07-25T18:09:09.010Z,6.23
2018-07-25T18:11:38.245Z,8.43
2018-07-25T18:14:12.174Z,6.27
2018-07-25T18:16:42.790Z,6.03
2018-07-25T18:19:12.271Z,8.07
2018-07-25T18:21:41.897Z,5.90
2018-07-25T18:24:11.616Z,8.07
2018-07-25T18:26:42.033Z,5.77
2018-07-25T18:29:11.202Z,9.70
2018-07-25T18:31:40.386Z,12.17
2018-07-25T18:34:09.537Z,9.43
2018-07-25T18:36:38.434Z,9.93
2018-07-25T18:39:10.385Z,10.33
2018-07-25T18:41:40.579Z,12.40
2018-07-25T18:44:10.389Z,8.20
2018-07-25T18:46:39.834Z,10.43
2018-07-25T18:49:09.190Z,7.60
2018-07-25T18:51:37.297Z,7.07
2018-07-25T18:54:06.778Z,7.13
2018-07-25T18:56:34.647Z,7.50
2018-07-25T18:59:03.767Z,7.93
2018-07-25T19:01:32.887Z,12.27
2018-07-25T19:04:02.002Z,7.40
2018-07-25T19:06:31.145Z,7.70
2018-07-25T19:09:00.319Z,7.20
2018-07-25T19:11:29.471Z,13.07
2018-07-25T19:14:03.912Z,7.73
2018-07-25T19:16:33.005Z,6.60
2018-07-25T19:19:02.455Z,8.00
2018-07-25T19:21:31.619Z,7.60
2018-07-25T19:24:00.754Z,6.60
2018-07-25T19:26:30.318Z,10.00
2018-07-25T19:28:59.210Z,8.63
2018-07-25T19:31:28.276Z,8.13
2018-07-25T19:33:57.058Z,8.50
2018-07-25T19:36:25.718Z,7.10
2018-07-25T19:38:54.882Z,10.97
2018-07-25T19:41:23.997Z,9.13
2018-07-25T19:43:53.095Z,9.60
2018-07-25T19:46:22.234Z,7.30
2018-07-25T19:48:51.367Z,10.17
2018-07-25T19:51:20.497Z,10.03
2018-07-25T19:53:49.691Z,8.03
2018-07-25T19:56:19.086Z,9.30
2018-07-25T19:58:48.438Z,11.63
2018-07-25T20:01:17.810Z,7.47
2018-07-25T20:03:47.201Z,7.93
2018-07-25T20:06:16.522Z,9.70
2018-07-25T20:08:45.520Z,13.17
2018-07-25T20:11:14.715Z,11.60
2018-07-25T20:13:49.011Z,12.27
2018-07-25T20:16:18.959Z,7.17
2018-07-25T20:18:48.096Z,6.83
2018-07-25T20:21:17.230Z,9.90
2018-07-25T20:23:46.580Z,7.63
2018-07-25T20:26:15.717Z,8.30
2018-07-25T20:28:44.856Z,8.93
2018-07-25T20:31:14.019Z,6.73
2018-07-25T20:33:43.150Z,10.13
2018-07-25T20:36:13.253Z,10.50
2018-07-25T20:38:42.578Z,8.03
2018-07-25T20:41:11.895Z,9.33
2018-07-25T20:43:41.210Z,14.97
2018-07-25T20:46:10.550Z,17.37
2018-07-25T20:48:39.906Z,12.27
2018-07-25T20:51:09.955Z,8.17
2018-07-25T20:53:39.094Z,7.80
2018-07-25T20:56:08.295Z,10.27
2018-07-25T20:58:37.915Z,8.80
2018-07-25T21:01:07.052Z,8.60
2018-07-25T21:03:36.278Z,8.50
2018-07-25T21:06:05.517Z,10.57
2018-07-25T21:08:34.677Z,8.40
2018-07-25T21:11:03.905Z,9.50
2018-07-25T21:13:33.464Z,10.20
2018-07-25T21:16:03.609Z,10.87
2018-07-25T21:18:32.843Z,7.60
2018-07-25T21:21:01.967Z,9.80
2018-07-25T21:23:31.714Z,8.50
2018-07-25T21:26:07.595Z,8.70
2018-07-25T21:28:37.838Z,9.50
2018-07-25T21:31:08.042Z,8.80
2018-07-25T21:33:37.772Z,11.47
2018-07-25T21:36:11.970Z,10.27
2018-07-25T21:38:41.248Z,12.60
2018-07-25T21:41:10.922Z,7.70
2018-07-25T21:43:40.143Z,10.80
2018-07-25T21:46:09.803Z,11.37
2018-07-25T21:48:39.202Z,9.17
2018-07-25T21:51:08.598Z,9.43
2018-07-25T21:53:37.433Z,10.80
2018-07-25T21:56:06.558Z,12.70
2018-07-25T21:58:36.118Z,11.17
2018-07-25T22:01:18.297Z,12.50
2018-07-25T22:03:47.882Z,12.13
2018-07-25T22:06:19.074Z,9.97
2018-07-25T22:08:47.976Z,10.00
2018-07-25T22:11:17.134Z,9.60
2018-07-25T22:13:51.690Z,8.00
2018-07-25T22:16:20.790Z,10.30
2018-07-25T22:18:50.106Z,10.70
2018-07-25T22:21:19.262Z,10.87
2018-07-25T22:23:48.591Z,14.47
2018-07-25T22:26:17.714Z,11.07
2018-07-25T22:28:46.877Z,11.23
2018-07-25T22:31:16.009Z,10.47
2018-07-25T22:33:45.161Z,11.83
2018-07-25T22:36:14.330Z,11.10
2018-07-25T22:38:43.710Z,12.60
2018-07-25T22:41:12.878Z,13.67
2018-07-25T22:43:42.058Z,14.23
2018-07-25T22:46:11.650Z,10.27
2018-07-25T22:48:40.812Z,15.40
2018-07-25T22:51:10.062Z,11.00
2018-07-25T22:53:39.465Z,12.10
2018-07-25T22:56:09.938Z,16.50
2018-07-25T22:58:39.054Z,16.03
2018-07-25T23:01:08.191Z,11.00
2018-07-25T23:03:37.718Z,10.37
2018-07-25T23:06:07.267Z,15.40
2018-07-25T23:08:36.450Z,15.13
2018-07-25T23:11:06.187Z,12.00
2018-07-25T23:13:35.310Z,14.10
2018-07-25T23:16:04.900Z,12.73
2018-07-25T23:18:34.138Z,15.43
2018-07-25T23:21:03.309Z,11.97
2018-07-25T23:23:32.430Z,14.90
2018-07-25T23:26:02.374Z,12.80
2018-07-25T23:28:31.494Z,14.33
2018-07-25T23:31:00.630Z,12.93
2018-07-25T23:33:29.937Z,14.10
2018-07-25T23:35:59.124Z,18.57
2018-07-25T23:38:28.278Z,13.30
2018-07-25T23:40:57.659Z,12.73
2018-07-25T23:43:26.786Z,12.57
2018-07-25T23:45:58.793Z,15.10
2018-07-25T23:48:27.982Z,14.00
2018-07-25T23:50:57.234Z,13.33
2018-07-25T23:53:26.381Z,12.93
2018-07-25T23:55:55.571Z,13.30
2018-07-25T23:58:25.265Z,13.00
